Happy Jack, Arizona
Current Conditions -  °F | °C
As of 10:35 AM on Wednesday 26 Nov 2014 (Local Time) from KSEZ Reporting Station
Clear Clear  
Wind Chill: 57°   Ceiling: Unl
Heat Index: 57°   Visibility: 10mi
Dew Point: 23°   Wind: 5mph
Humidity: 27%   Direction: 160°SSE
Pressure: 30.42"   Gusts: NA
Location:  34.74°N, 111.41°W
Report Text: KSEZ 261735Z AUTO 16004KT 10SM CLR 14/M05 A3042 RMK AO2
Loading
Personal Weather Stations






























Interactive Weather Map New forecast layout! Learn more

10-Day Weather Forecast

Advertisements
Track Severe Weather on mobile